sensor_id;sensor_type;location;lat;lon;timestamp;temperature;humidity
6018;DHT22;3037;51.068;13.780;2023-03-23T00:01:23;12.30;1.00
6018;DHT22;3037;51.068;13.780;2023-03-23T00:03:53;12.40;1.00
6018;DHT22;3037;51.068;13.780;2023-03-23T00:06:22;12.50;1.00
6018;DHT22;3037;51.068;13.780;2023-03-23T00:08:50;12.60;1.00
6018;DHT22;3037;51.068;13.780;2023-03-23T00:11:20;12.80;1.00
6018;DHT22;3037;51.068;13.780;2023-03-23T00:13:48;12.90;1.00
6018;DHT22;3037;51.068;13.780;2023-03-23T00:16:18;12.90;1.00
6018;DHT22;3037;51.068;13.780;2023-03-23T00:18:51;12.90;1.00
6018;DHT22;3037;51.068;13.780;2023-03-23T00:21:20;13.00;1.00
6018;DHT22;3037;51.068;13.780;2023-03-23T00:23:51;13.00;1.00
6018;DHT22;3037;51.068;13.780;2023-03-23T00:26:16;12.90;1.00
6018;DHT22;3037;51.068;13.780;2023-03-23T00:28:42;12.90;1.00
6018;DHT22;3037;51.068;13.780;2023-03-23T00:31:09;13.00;1.00
6018;DHT22;3037;51.068;13.780;2023-03-23T00:33:36;13.10;1.00
6018;DHT22;3037;51.068;13.780;2023-03-23T00:36:09;13.10;1.00
6018;DHT22;3037;51.068;13.780;2023-03-23T00:38:36;13.10;1.00
6018;DHT22;3037;51.068;13.780;2023-03-23T00:41:02;13.20;1.00
6018;DHT22;3037;51.068;13.780;2023-03-23T00:43:28;13.20;1.00
6018;DHT22;3037;51.068;13.780;2023-03-23T00:45:55;13.10;1.00
6018;DHT22;3037;51.068;13.780;2023-03-23T00:48:21;13.10;1.00
6018;DHT22;3037;51.068;13.780;2023-03-23T00:50:47;13.20;1.00
6018;DHT22;3037;51.068;13.780;2023-03-23T00:53:13;13.20;1.00
6018;DHT22;3037;51.068;13.780;2023-03-23T00:55:44;13.30;1.00
6018;DHT22;3037;51.068;13.780;2023-03-23T00:58:10;13.30;1.00
6018;DHT22;3037;51.068;13.780;2023-03-23T01:00:37;13.30;1.00
6018;DHT22;3037;51.068;13.780;2023-03-23T01:03:03;13.30;1.00
6018;DHT22;3037;51.068;13.780;2023-03-23T01:05:28;13.40;1.00
6018;DHT22;3037;51.068;13.780;2023-03-23T01:07:57;13.30;1.00
6018;DHT22;3037;51.068;13.780;2023-03-23T01:10:23;13.40;1.00
6018;DHT22;3037;51.068;13.780;2023-03-23T01:12:50;13.40;1.00
6018;DHT22;3037;51.068;13.780;2023-03-23T01:15:17;13.40;1.00
6018;DHT22;3037;51.068;13.780;2023-03-23T01:17:44;13.40;1.00
6018;DHT22;3037;51.068;13.780;2023-03-23T01:20:11;13.40;1.00
6018;DHT22;3037;51.068;13.780;2023-03-23T01:22:38;13.30;1.00
6018;DHT22;3037;51.068;13.780;2023-03-23T01:25:05;13.20;1.00
6018;DHT22;3037;51.068;13.780;2023-03-23T01:27:31;13.30;1.00
6018;DHT22;3037;51.068;13.780;2023-03-23T01:29:56;13.30;1.00
6018;DHT22;3037;51.068;13.780;2023-03-23T01:32:22;13.20;1.00
6018;DHT22;3037;51.068;13.780;2023-03-23T01:34:48;13.20;1.00
6018;DHT22;3037;51.068;13.780;2023-03-23T01:37:13;13.30;1.00
6018;DHT22;3037;51.068;13.780;2023-03-23T01:39:41;13.30;1.00
6018;DHT22;3037;51.068;13.780;2023-03-23T01:42:08;13.20;1.00
6018;DHT22;3037;51.068;13.780;2023-03-23T01:46:59;13.20;1.00
6018;DHT22;3037;51.068;13.780;2023-03-23T01:49:28;13.20;1.00
6018;DHT22;3037;51.068;13.780;2023-03-23T01:52:12;13.20;1.00
6018;DHT22;3037;51.068;13.780;2023-03-23T01:54:42;13.20;1.00
6018;DHT22;3037;51.068;13.780;2023-03-23T01:57:13;13.20;1.00
6018;DHT22;3037;51.068;13.780;2023-03-23T01:59:42;13.20;1.00
6018;DHT22;3037;51.068;13.780;2023-03-23T02:02:10;13.30;1.00
6018;DHT22;3037;51.068;13.780;2023-03-23T02:04:37;13.30;1.00
6018;DHT22;3037;51.068;13.780;2023-03-23T02:07:03;13.30;1.00
6018;DHT22;3037;51.068;13.780;2023-03-23T02:09:29;13.40;1.00
6018;DHT22;3037;51.068;13.780;2023-03-23T02:11:55;13.50;1.00
6018;DHT22;3037;51.068;13.780;2023-03-23T02:14:23;13.50;1.00
6018;DHT22;3037;51.068;13.780;2023-03-23T02:17:14;13.50;1.00
6018;DHT22;3037;51.068;13.780;2023-03-23T02:22:40;13.50;1.00
6018;DHT22;3037;51.068;13.780;2023-03-23T02:28:19;13.60;1.00
6018;DHT22;3037;51.068;13.780;2023-03-23T02:31:06;13.50;1.00
6018;DHT22;3037;51.068;13.780;2023-03-23T02:33:50;13.50;1.00
6018;DHT22;3037;51.068;13.780;2023-03-23T02:36:47;13.60;1.00
6018;DHT22;3037;51.068;13.780;2023-03-23T02:39:23;13.60;1.00
6018;DHT22;3037;51.068;13.780;2023-03-23T02:41:56;13.50;1.00
6018;DHT22;3037;51.068;13.780;2023-03-23T02:44:24;13.60;1.00
6018;DHT22;3037;51.068;13.780;2023-03-23T02:46:56;13.60;1.00
6018;DHT22;3037;51.068;13.780;2023-03-23T02:49:24;13.70;1.00
6018;DHT22;3037;51.068;13.780;2023-03-23T02:51:51;13.80;1.00
6018;DHT22;3037;51.068;13.780;2023-03-23T02:54:18;13.70;1.00
6018;DHT22;3037;51.068;13.780;2023-03-23T02:56:45;13.80;1.00
6018;DHT22;3037;51.068;13.780;2023-03-23T02:59:11;13.90;1.00
6018;DHT22;3037;51.068;13.780;2023-03-23T03:04:06;13.80;1.00
6018;DHT22;3037;51.068;13.780;2023-03-23T03:06:40;13.80;1.00
6018;DHT22;3037;51.068;13.780;2023-03-23T03:10:01;13.70;1.00
6018;DHT22;3037;51.068;13.780;2023-03-23T03:15:05;13.80;1.00
6018;DHT22;3037;51.068;13.780;2023-03-23T03:17:35;13.80;1.00
6018;DHT22;3037;51.068;13.780;2023-03-23T03:20:04;13.80;1.00
6018;DHT22;3037;51.068;13.780;2023-03-23T03:22:33;13.70;1.00
6018;DHT22;3037;51.068;13.780;2023-03-23T03:25:03;13.80;1.00
6018;DHT22;3037;51.068;13.780;2023-03-23T03:27:30;13.90;1.00
6018;DHT22;3037;51.068;13.780;2023-03-23T03:29:59;13.80;1.00
6018;DHT22;3037;51.068;13.780;2023-03-23T03:32:31;13.80;1.00
6018;DHT22;3037;51.068;13.780;2023-03-23T03:35:01;13.70;1.00
6018;DHT22;3037;51.068;13.780;2023-03-23T03:37:33;13.70;1.00
6018;DHT22;3037;51.068;13.780;2023-03-23T03:39:59;13.70;1.00
6018;DHT22;3037;51.068;13.780;2023-03-23T03:42:25;13.60;1.00
6018;DHT22;3037;51.068;13.780;2023-03-23T03:44:51;13.60;1.00
6018;DHT22;3037;51.068;13.780;2023-03-23T03:47:16;13.70;1.00
6018;DHT22;3037;51.068;13.780;2023-03-23T03:49:42;13.70;1.00
6018;DHT22;3037;51.068;13.780;2023-03-23T03:52:07;13.70;1.00
6018;DHT22;3037;51.068;13.780;2023-03-23T03:54:33;13.70;1.00
6018;DHT22;3037;51.068;13.780;2023-03-23T03:56:58;13.70;1.00
6018;DHT22;3037;51.068;13.780;2023-03-23T03:59:24;13.70;1.00
6018;DHT22;3037;51.068;13.780;2023-03-23T04:01:51;13.80;1.00
6018;DHT22;3037;51.068;13.780;2023-03-23T04:04:19;13.70;1.00
6018;DHT22;3037;51.068;13.780;2023-03-23T04:06:45;13.80;1.00
6018;DHT22;3037;51.068;13.780;2023-03-23T04:09:14;13.80;1.00
6018;DHT22;3037;51.068;13.780;2023-03-23T04:11:39;13.80;1.00
6018;DHT22;3037;51.068;13.780;2023-03-23T04:14:05;13.90;1.00
6018;DHT22;3037;51.068;13.780;2023-03-23T04:16:31;13.90;1.00
6018;DHT22;3037;51.068;13.780;2023-03-23T04:19:00;13.90;1.00
6018;DHT22;3037;51.068;13.780;2023-03-23T04:21:26;13.90;1.00
6018;DHT22;3037;51.068;13.780;2023-03-23T04:23:55;13.90;1.00
6018;DHT22;3037;51.068;13.780;2023-03-23T04:26:21;13.80;1.00
6018;DHT22;3037;51.068;13.780;2023-03-23T04:28:46;13.80;1.00
6018;DHT22;3037;51.068;13.780;2023-03-23T04:31:12;13.70;1.00
6018;DHT22;3037;51.068;13.780;2023-03-23T04:33:38;13.70;1.00
6018;DHT22;3037;51.068;13.780;2023-03-23T04:36:06;13.60;1.00
6018;DHT22;3037;51.068;13.780;2023-03-23T04:38:32;13.60;1.00
6018;DHT22;3037;51.068;13.780;2023-03-23T04:40:59;13.60;1.00
6018;DHT22;3037;51.068;13.780;2023-03-23T04:43:27;13.60;1.00
6018;DHT22;3037;51.068;13.780;2023-03-23T04:45:55;13.50;1.00
6018;DHT22;3037;51.068;13.780;2023-03-23T04:48:28;13.50;1.00
6018;DHT22;3037;51.068;13.780;2023-03-23T04:50:55;13.40;1.00
6018;DHT22;3037;51.068;13.780;2023-03-23T04:53:21;13.40;1.00
6018;DHT22;3037;51.068;13.780;2023-03-23T04:55:47;13.40;1.00
6018;DHT22;3037;51.068;13.780;2023-03-23T04:58:15;13.40;1.00
6018;DHT22;3037;51.068;13.780;2023-03-23T05:00:41;13.40;1.00
6018;DHT22;3037;51.068;13.780;2023-03-23T05:03:11;13.30;1.00
6018;DHT22;3037;51.068;13.780;2023-03-23T05:05:41;13.30;1.00
6018;DHT22;3037;51.068;13.780;2023-03-23T05:08:07;13.30;1.00
6018;DHT22;3037;51.068;13.780;2023-03-23T05:10:33;13.40;1.00
6018;DHT22;3037;51.068;13.780;2023-03-23T05:12:58;13.40;1.00
6018;DHT22;3037;51.068;13.780;2023-03-23T05:15:24;13.40;1.00
6018;DHT22;3037;51.068;13.780;2023-03-23T05:17:51;13.40;1.00
6018;DHT22;3037;51.068;13.780;2023-03-23T05:20:17;13.50;1.00
6018;DHT22;3037;51.068;13.780;2023-03-23T05:22:46;13.40;1.00
6018;DHT22;3037;51.068;13.780;2023-03-23T05:25:15;13.30;1.00
6018;DHT22;3037;51.068;13.780;2023-03-23T05:27:41;13.40;1.00
6018;DHT22;3037;51.068;13.780;2023-03-23T05:30:14;13.40;1.00
6018;DHT22;3037;51.068;13.780;2023-03-23T05:32:42;13.40;1.00
6018;DHT22;3037;51.068;13.780;2023-03-23T05:35:08;13.40;1.00
6018;DHT22;3037;51.068;13.780;2023-03-23T05:37:33;13.50;1.00
6018;DHT22;3037;51.068;13.780;2023-03-23T05:39:59;13.50;1.00
6018;DHT22;3037;51.068;13.780;2023-03-23T05:42:30;13.50;1.00
6018;DHT22;3037;51.068;13.780;2023-03-23T05:44:57;13.60;1.00
6018;DHT22;3037;51.068;13.780;2023-03-23T05:47:24;13.60;1.00
6018;DHT22;3037;51.068;13.780;2023-03-23T05:49:50;13.60;1.00
6018;DHT22;3037;51.068;13.780;2023-03-23T05:52:17;13.70;1.00
6018;DHT22;3037;51.068;13.780;2023-03-23T05:54:42;13.70;1.00
6018;DHT22;3037;51.068;13.780;2023-03-23T05:57:08;13.60;1.00
6018;DHT22;3037;51.068;13.780;2023-03-23T05:59:34;13.60;1.00
6018;DHT22;3037;51.068;13.780;2023-03-23T06:02:00;13.80;1.00
6018;DHT22;3037;51.068;13.780;2023-03-23T06:04:26;13.90;1.00
6018;DHT22;3037;51.068;13.780;2023-03-23T06:06:52;13.80;1.00
6018;DHT22;3037;51.068;13.780;2023-03-23T06:09:18;13.80;1.00
6018;DHT22;3037;51.068;13.780;2023-03-23T06:11:44;13.70;1.00
6018;DHT22;3037;51.068;13.780;2023-03-23T06:14:10;13.70;1.00
6018;DHT22;3037;51.068;13.780;2023-03-23T06:16:37;13.90;1.00
6018;DHT22;3037;51.068;13.780;2023-03-23T06:19:02;13.80;1.00
6018;DHT22;3037;51.068;13.780;2023-03-23T06:21:30;13.90;1.00
6018;DHT22;3037;51.068;13.780;2023-03-23T06:23:55;13.90;1.00
6018;DHT22;3037;51.068;13.780;2023-03-23T06:26:24;14.00;1.00
6018;DHT22;3037;51.068;13.780;2023-03-23T06:28:50;14.20;1.00
6018;DHT22;3037;51.068;13.780;2023-03-23T06:31:16;14.30;1.00
6018;DHT22;3037;51.068;13.780;2023-03-23T06:33:42;14.50;1.00
6018;DHT22;3037;51.068;13.780;2023-03-23T06:36:09;14.60;1.00
6018;DHT22;3037;51.068;13.780;2023-03-23T06:38:37;14.70;1.00
6018;DHT22;3037;51.068;13.780;2023-03-23T06:41:03;14.90;1.00
6018;DHT22;3037;51.068;13.780;2023-03-23T06:43:29;14.90;1.00
6018;DHT22;3037;51.068;13.780;2023-03-23T06:45:58;14.80;1.00
6018;DHT22;3037;51.068;13.780;2023-03-23T06:48:23;15.00;1.00
6018;DHT22;3037;51.068;13.780;2023-03-23T06:50:49;15.10;1.00
6018;DHT22;3037;51.068;13.780;2023-03-23T06:53:15;15.30;1.00
6018;DHT22;3037;51.068;13.780;2023-03-23T06:55:43;15.50;1.00
6018;DHT22;3037;51.068;13.780;2023-03-23T06:58:09;15.60;1.00
6018;DHT22;3037;51.068;13.780;2023-03-23T07:00:35;15.60;1.00
6018;DHT22;3037;51.068;13.780;2023-03-23T07:03:01;15.60;1.00
6018;DHT22;3037;51.068;13.780;2023-03-23T07:05:26;15.70;1.00
6018;DHT22;3037;51.068;13.780;2023-03-23T07:07:52;15.80;1.00
6018;DHT22;3037;51.068;13.780;2023-03-23T07:10:18;15.90;1.00
6018;DHT22;3037;51.068;13.780;2023-03-23T07:12:44;16.00;1.00
6018;DHT22;3037;51.068;13.780;2023-03-23T07:15:10;16.20;1.00
6018;DHT22;3037;51.068;13.780;2023-03-23T07:17:38;16.40;1.00
6018;DHT22;3037;51.068;13.780;2023-03-23T07:20:04;16.70;1.00
6018;DHT22;3037;51.068;13.780;2023-03-23T07:22:31;17.10;1.00
6018;DHT22;3037;51.068;13.780;2023-03-23T07:24:56;17.50;1.00
6018;DHT22;3037;51.068;13.780;2023-03-23T07:27:22;18.10;1.00
6018;DHT22;3037;51.068;13.780;2023-03-23T07:29:47;18.00;1.00
6018;DHT22;3037;51.068;13.780;2023-03-23T07:32:13;17.80;1.00
6018;DHT22;3037;51.068;13.780;2023-03-23T07:34:39;17.70;1.00
6018;DHT22;3037;51.068;13.780;2023-03-23T07:37:05;17.50;1.00
6018;DHT22;3037;51.068;13.780;2023-03-23T07:39:30;17.60;1.00
6018;DHT22;3037;51.068;13.780;2023-03-23T07:41:56;17.50;1.00
6018;DHT22;3037;51.068;13.780;2023-03-23T07:44:22;17.20;1.00
6018;DHT22;3037;51.068;13.780;2023-03-23T07:46:47;17.20;1.00
6018;DHT22;3037;51.068;13.780;2023-03-23T07:49:14;17.20;1.00
6018;DHT22;3037;51.068;13.780;2023-03-23T07:51:40;17.20;1.00
6018;DHT22;3037;51.068;13.780;2023-03-23T07:54:06;17.00;1.00
6018;DHT22;3037;51.068;13.780;2023-03-23T07:56:36;17.00;1.00
6018;DHT22;3037;51.068;13.780;2023-03-23T07:59:03;17.20;1.00
6018;DHT22;3037;51.068;13.780;2023-03-23T08:01:30;17.20;1.00
6018;DHT22;3037;51.068;13.780;2023-03-23T08:03:55;17.30;1.00
6018;DHT22;3037;51.068;13.780;2023-03-23T08:06:26;17.20;1.00
6018;DHT22;3037;51.068;13.780;2023-03-23T08:08:52;17.20;1.00
6018;DHT22;3037;51.068;13.780;2023-03-23T08:11:19;17.10;1.00
6018;DHT22;3037;51.068;13.780;2023-03-23T08:13:45;17.00;1.00
6018;DHT22;3037;51.068;13.780;2023-03-23T08:16:11;17.00;1.00
6018;DHT22;3037;51.068;13.780;2023-03-23T08:18:37;17.20;1.00
6018;DHT22;3037;51.068;13.780;2023-03-23T08:21:05;17.20;1.00
6018;DHT22;3037;51.068;13.780;2023-03-23T08:23:31;17.20;1.00
6018;DHT22;3037;51.068;13.780;2023-03-23T08:25:58;17.00;1.00
6018;DHT22;3037;51.068;13.780;2023-03-23T08:28:24;17.00;1.00
6018;DHT22;3037;51.068;13.780;2023-03-23T08:30:49;16.90;1.00
6018;DHT22;3037;51.068;13.780;2023-03-23T08:33:15;16.60;1.00
6018;DHT22;3037;51.068;13.780;2023-03-23T08:35:41;16.70;1.00
6018;DHT22;3037;51.068;13.780;2023-03-23T08:38:09;16.50;1.00
6018;DHT22;3037;51.068;13.780;2023-03-23T08:40:34;16.50;1.00
6018;DHT22;3037;51.068;13.780;2023-03-23T08:43:00;16.50;1.00
6018;DHT22;3037;51.068;13.780;2023-03-23T08:45:25;16.50;1.00
6018;DHT22;3037;51.068;13.780;2023-03-23T08:47:51;16.60;1.00
6018;DHT22;3037;51.068;13.780;2023-03-23T08:50:21;16.50;1.00
6018;DHT22;3037;51.068;13.780;2023-03-23T08:52:48;16.40;1.00
6018;DHT22;3037;51.068;13.780;2023-03-23T08:55:15;16.40;1.00
6018;DHT22;3037;51.068;13.780;2023-03-23T08:57:43;16.40;1.00
6018;DHT22;3037;51.068;13.780;2023-03-23T09:00:12;16.30;1.00
6018;DHT22;3037;51.068;13.780;2023-03-23T09:02:47;16.40;1.00
6018;DHT22;3037;51.068;13.780;2023-03-23T09:05:14;16.40;1.00
6018;DHT22;3037;51.068;13.780;2023-03-23T09:07:42;16.40;1.00
6018;DHT22;3037;51.068;13.780;2023-03-23T09:10:08;16.40;1.00
6018;DHT22;3037;51.068;13.780;2023-03-23T09:12:34;16.30;1.00
6018;DHT22;3037;51.068;13.780;2023-03-23T09:15:02;16.50;1.00
6018;DHT22;3037;51.068;13.780;2023-03-23T09:17:34;16.50;1.00
6018;DHT22;3037;51.068;13.780;2023-03-23T09:20:00;16.70;1.00
6018;DHT22;3037;51.068;13.780;2023-03-23T09:22:26;16.60;1.00
6018;DHT22;3037;51.068;13.780;2023-03-23T09:24:51;16.60;1.00
6018;DHT22;3037;51.068;13.780;2023-03-23T09:27:17;16.50;1.00
6018;DHT22;3037;51.068;13.780;2023-03-23T09:29:43;16.40;1.00
6018;DHT22;3037;51.068;13.780;2023-03-23T09:32:10;16.30;1.00
6018;DHT22;3037;51.068;13.780;2023-03-23T09:34:38;16.30;1.00
6018;DHT22;3037;51.068;13.780;2023-03-23T09:37:04;16.30;1.00
6018;DHT22;3037;51.068;13.780;2023-03-23T09:39:30;16.40;1.00
6018;DHT22;3037;51.068;13.780;2023-03-23T09:47:33;16.30;1.00
6018;DHT22;3037;51.068;13.780;2023-03-23T09:50:19;16.20;1.00
6018;DHT22;3037;51.068;13.780;2023-03-23T09:52:56;16.20;1.00
6018;DHT22;3037;51.068;13.780;2023-03-23T09:55:23;16.10;1.00
6018;DHT22;3037;51.068;13.780;2023-03-23T10:00:50;16.00;1.00
6018;DHT22;3037;51.068;13.780;2023-03-23T10:03:20;16.10;1.00
6018;DHT22;3037;51.068;13.780;2023-03-23T10:05:51;16.10;1.00
6018;DHT22;3037;51.068;13.780;2023-03-23T10:08:29;16.20;1.00
6018;DHT22;3037;51.068;13.780;2023-03-23T10:11:04;16.40;1.00
6018;DHT22;3037;51.068;13.780;2023-03-23T10:17:04;16.40;1.00
6018;DHT22;3037;51.068;13.780;2023-03-23T10:19:45;16.50;1.00
6018;DHT22;3037;51.068;13.780;2023-03-23T10:22:14;16.40;1.00
6018;DHT22;3037;51.068;13.780;2023-03-23T10:27:38;16.40;1.00
6018;DHT22;3037;51.068;13.780;2023-03-23T10:30:29;16.50;1.00
6018;DHT22;3037;51.068;13.780;2023-03-23T10:35:55;16.70;1.00
6018;DHT22;3037;51.068;13.780;2023-03-23T10:38:35;16.80;1.00
6018;DHT22;3037;51.068;13.780;2023-03-23T10:41:13;16.80;1.00
6018;DHT22;3037;51.068;13.780;2023-03-23T10:43:40;16.80;1.00
6018;DHT22;3037;51.068;13.780;2023-03-23T10:48:40;16.80;1.00
6018;DHT22;3037;51.068;13.780;2023-03-23T10:51:10;16.70;1.00
6018;DHT22;3037;51.068;13.780;2023-03-23T10:53:38;16.80;1.00
6018;DHT22;3037;51.068;13.780;2023-03-23T10:56:16;16.90;1.00
6018;DHT22;3037;51.068;13.780;2023-03-23T10:58:44;17.00;1.00
6018;DHT22;3037;51.068;13.780;2023-03-23T11:01:10;17.20;1.00
6018;DHT22;3037;51.068;13.780;2023-03-23T11:03:44;17.30;1.00
6018;DHT22;3037;51.068;13.780;2023-03-23T11:06:26;17.30;1.00
6018;DHT22;3037;51.068;13.780;2023-03-23T11:08:58;17.30;1.00
6018;DHT22;3037;51.068;13.780;2023-03-23T11:11:29;17.20;1.00
6018;DHT22;3037;51.068;13.780;2023-03-23T11:14:12;17.20;1.00
6018;DHT22;3037;51.068;13.780;2023-03-23T11:16:44;17.20;1.00
6018;DHT22;3037;51.068;13.780;2023-03-23T11:19:26;17.10;1.00
6018;DHT22;3037;51.068;13.780;2023-03-23T11:21:55;17.00;1.00
6018;DHT22;3037;51.068;13.780;2023-03-23T11:24:25;16.90;1.00
6018;DHT22;3037;51.068;13.780;2023-03-23T11:26:52;16.80;1.00
6018;DHT22;3037;51.068;13.780;2023-03-23T11:29:27;16.80;1.00
6018;DHT22;3037;51.068;13.780;2023-03-23T11:32:05;16.70;1.00
6018;DHT22;3037;51.068;13.780;2023-03-23T11:34:44;16.70;1.00
6018;DHT22;3037;51.068;13.780;2023-03-23T11:42:55;16.60;1.00
6018;DHT22;3037;51.068;13.780;2023-03-23T11:45:31;16.60;1.00
6018;DHT22;3037;51.068;13.780;2023-03-23T11:50:59;16.60;1.00
6018;DHT22;3037;51.068;13.780;2023-03-23T11:53:57;16.80;1.00
6018;DHT22;3037;51.068;13.780;2023-03-23T11:56:36;16.70;1.00
6018;DHT22;3037;51.068;13.780;2023-03-23T11:59:08;16.60;1.00
6018;DHT22;3037;51.068;13.780;2023-03-23T12:01:48;16.60;1.00
6018;DHT22;3037;51.068;13.780;2023-03-23T12:04:37;16.60;1.00
6018;DHT22;3037;51.068;13.780;2023-03-23T12:10:02;16.50;1.00
6018;DHT22;3037;51.068;13.780;2023-03-23T12:12:35;16.60;1.00
6018;DHT22;3037;51.068;13.780;2023-03-23T12:20:31;16.40;1.00
6018;DHT22;3037;51.068;13.780;2023-03-23T12:23:25;16.40;1.00
6018;DHT22;3037;51.068;13.780;2023-03-23T12:31:49;16.30;1.00
6018;DHT22;3037;51.068;13.780;2023-03-23T12:34:49;16.40;1.00
6018;DHT22;3037;51.068;13.780;2023-03-23T12:43:19;16.50;1.00
6018;DHT22;3037;51.068;13.780;2023-03-23T12:48:28;16.50;1.00
6018;DHT22;3037;51.068;13.780;2023-03-23T12:51:08;16.50;1.00
6018;DHT22;3037;51.068;13.780;2023-03-23T12:56:42;16.80;1.00
6018;DHT22;3037;51.068;13.780;2023-03-23T12:59:30;16.90;1.00
6018;DHT22;3037;51.068;13.780;2023-03-23T13:02:16;16.70;1.00
6018;DHT22;3037;51.068;13.780;2023-03-23T13:08:01;16.90;1.00
6018;DHT22;3037;51.068;13.780;2023-03-23T13:10:42;17.00;1.00
6018;DHT22;3037;51.068;13.780;2023-03-23T13:13:23;17.10;1.00
6018;DHT22;3037;51.068;13.780;2023-03-23T13:24:15;17.10;1.00
6018;DHT22;3037;51.068;13.780;2023-03-23T13:26:42;17.00;1.00
6018;DHT22;3037;51.068;13.780;2023-03-23T13:29:21;17.10;1.00
6018;DHT22;3037;51.068;13.780;2023-03-23T13:32:03;17.00;1.00
6018;DHT22;3037;51.068;13.780;2023-03-23T13:34:31;17.00;1.00
6018;DHT22;3037;51.068;13.780;2023-03-23T13:37:01;17.10;1.00
6018;DHT22;3037;51.068;13.780;2023-03-23T13:40:23;17.10;1.00
6018;DHT22;3037;51.068;13.780;2023-03-23T13:42:51;17.10;1.00
6018;DHT22;3037;51.068;13.780;2023-03-23T13:50:57;17.40;1.00
6018;DHT22;3037;51.068;13.780;2023-03-23T13:53:45;17.60;1.00
6018;DHT22;3037;51.068;13.780;2023-03-23T13:58:49;17.70;1.00
6018;DHT22;3037;51.068;13.780;2023-03-23T14:01:18;17.80;1.00
6018;DHT22;3037;51.068;13.780;2023-03-23T14:03:48;17.90;1.00
6018;DHT22;3037;51.068;13.780;2023-03-23T14:06:19;18.20;1.00
6018;DHT22;3037;51.068;13.780;2023-03-23T14:08:48;18.30;1.00
6018;DHT22;3037;51.068;13.780;2023-03-23T14:11:28;18.50;1.00
6018;DHT22;3037;51.068;13.780;2023-03-23T14:14:06;19.00;1.00
6018;DHT22;3037;51.068;13.780;2023-03-23T14:16:40;19.70;1.00
6018;DHT22;3037;51.068;13.780;2023-03-23T14:19:27;19.80;1.00
6018;DHT22;3037;51.068;13.780;2023-03-23T14:21:58;19.90;1.00
6018;DHT22;3037;51.068;13.780;2023-03-23T14:24:27;19.70;1.00
6018;DHT22;3037;51.068;13.780;2023-03-23T14:27:07;19.40;1.00
6018;DHT22;3037;51.068;13.780;2023-03-23T14:29:34;19.00;1.00
6018;DHT22;3037;51.068;13.780;2023-03-23T14:32:00;19.00;1.00
6018;DHT22;3037;51.068;13.780;2023-03-23T14:34:29;18.70;1.00
6018;DHT22;3037;51.068;13.780;2023-03-23T14:36:56;18.60;1.00
6018;DHT22;3037;51.068;13.780;2023-03-23T14:41:53;18.30;1.00
6018;DHT22;3037;51.068;13.780;2023-03-23T14:44:29;18.10;1.00
6018;DHT22;3037;51.068;13.780;2023-03-23T14:46:56;18.00;1.00
6018;DHT22;3037;51.068;13.780;2023-03-23T14:49:36;17.90;1.00
6018;DHT22;3037;51.068;13.780;2023-03-23T14:52:15;17.80;1.00
6018;DHT22;3037;51.068;13.780;2023-03-23T14:54:42;17.60;1.00
6018;DHT22;3037;51.068;13.780;2023-03-23T14:57:20;17.70;1.00
6018;DHT22;3037;51.068;13.780;2023-03-23T14:59:51;17.60;1.00
6018;DHT22;3037;51.068;13.780;2023-03-23T15:02:31;17.40;1.00
6018;DHT22;3037;51.068;13.780;2023-03-23T15:05:04;17.30;1.00
6018;DHT22;3037;51.068;13.780;2023-03-23T15:07:35;17.30;1.00
6018;DHT22;3037;51.068;13.780;2023-03-23T15:10:05;17.20;1.00
6018;DHT22;3037;51.068;13.780;2023-03-23T15:12:31;17.10;1.00
6018;DHT22;3037;51.068;13.780;2023-03-23T15:15:02;17.10;1.00
6018;DHT22;3037;51.068;13.780;2023-03-23T15:17:32;17.10;1.00
6018;DHT22;3037;51.068;13.780;2023-03-23T15:20:17;17.00;1.00
6018;DHT22;3037;51.068;13.780;2023-03-23T15:22:48;17.00;1.00
6018;DHT22;3037;51.068;13.780;2023-03-23T15:25:30;16.90;1.00
6018;DHT22;3037;51.068;13.780;2023-03-23T15:27:58;16.90;1.00
6018;DHT22;3037;51.068;13.780;2023-03-23T15:30:34;16.80;1.00
6018;DHT22;3037;51.068;13.780;2023-03-23T15:33:12;16.70;1.00
6018;DHT22;3037;51.068;13.780;2023-03-23T15:35:40;16.70;1.00
6018;DHT22;3037;51.068;13.780;2023-03-23T15:40:40;16.60;1.00
6018;DHT22;3037;51.068;13.780;2023-03-23T15:43:22;16.60;1.00
6018;DHT22;3037;51.068;13.780;2023-03-23T15:45:57;16.60;1.00
6018;DHT22;3037;51.068;13.780;2023-03-23T15:48:26;16.50;1.00
6018;DHT22;3037;51.068;13.780;2023-03-23T15:50:52;16.50;1.00
6018;DHT22;3037;51.068;13.780;2023-03-23T15:53:29;16.50;1.00
6018;DHT22;3037;51.068;13.780;2023-03-23T15:55:55;16.40;1.00
6018;DHT22;3037;51.068;13.780;2023-03-23T15:58:21;16.40;1.00
6018;DHT22;3037;51.068;13.780;2023-03-23T16:00:48;16.30;1.00
6018;DHT22;3037;51.068;13.780;2023-03-23T16:03:29;16.30;1.00
6018;DHT22;3037;51.068;13.780;2023-03-23T16:05:57;16.30;1.00
6018;DHT22;3037;51.068;13.780;2023-03-23T16:08:25;16.20;1.00
6018;DHT22;3037;51.068;13.780;2023-03-23T16:10:51;16.30;1.00
6018;DHT22;3037;51.068;13.780;2023-03-23T16:13:16;16.20;1.00
6018;DHT22;3037;51.068;13.780;2023-03-23T16:15:43;16.20;1.00
6018;DHT22;3037;51.068;13.780;2023-03-23T16:18:18;16.20;1.00
6018;DHT22;3037;51.068;13.780;2023-03-23T16:20:44;16.20;1.00
6018;DHT22;3037;51.068;13.780;2023-03-23T16:23:10;16.20;1.00
6018;DHT22;3037;51.068;13.780;2023-03-23T16:25:35;16.10;1.00
6018;DHT22;3037;51.068;13.780;2023-03-23T16:28:01;16.10;1.00
6018;DHT22;3037;51.068;13.780;2023-03-23T16:30:31;16.10;1.00
6018;DHT22;3037;51.068;13.780;2023-03-23T16:32:57;16.10;1.00
6018;DHT22;3037;51.068;13.780;2023-03-23T16:35:22;16.00;1.00
6018;DHT22;3037;51.068;13.780;2023-03-23T16:37:50;16.00;1.00
6018;DHT22;3037;51.068;13.780;2023-03-23T16:40:17;16.00;1.00
6018;DHT22;3037;51.068;13.780;2023-03-23T16:42:43;16.00;1.00
6018;DHT22;3037;51.068;13.780;2023-03-23T16:45:09;16.00;1.00
6018;DHT22;3037;51.068;13.780;2023-03-23T16:47:35;15.90;1.00
6018;DHT22;3037;51.068;13.780;2023-03-23T16:50:01;15.80;1.00
6018;DHT22;3037;51.068;13.780;2023-03-23T16:52:26;15.80;1.00
6018;DHT22;3037;51.068;13.780;2023-03-23T16:54:52;15.80;1.00
6018;DHT22;3037;51.068;13.780;2023-03-23T16:57:17;15.60;1.00
6018;DHT22;3037;51.068;13.780;2023-03-23T16:59:43;15.60;1.00
6018;DHT22;3037;51.068;13.780;2023-03-23T17:02:11;15.60;1.00
6018;DHT22;3037;51.068;13.780;2023-03-23T17:04:41;15.50;1.00
6018;DHT22;3037;51.068;13.780;2023-03-23T17:07:07;15.40;1.00
6018;DHT22;3037;51.068;13.780;2023-03-23T17:09:33;15.40;1.00
6018;DHT22;3037;51.068;13.780;2023-03-23T17:11:58;15.30;1.00
6018;DHT22;3037;51.068;13.780;2023-03-23T17:14:24;15.30;1.00
6018;DHT22;3037;51.068;13.780;2023-03-23T17:16:49;15.30;1.00
6018;DHT22;3037;51.068;13.780;2023-03-23T17:19:15;15.20;1.00
6018;DHT22;3037;51.068;13.780;2023-03-23T17:21:41;15.10;1.00
6018;DHT22;3037;51.068;13.780;2023-03-23T17:24:06;15.10;1.00
6018;DHT22;3037;51.068;13.780;2023-03-23T17:26:32;15.10;1.00
6018;DHT22;3037;51.068;13.780;2023-03-23T17:28:58;15.00;1.00
6018;DHT22;3037;51.068;13.780;2023-03-23T17:31:23;15.00;1.00
6018;DHT22;3037;51.068;13.780;2023-03-23T17:33:49;15.00;1.00
6018;DHT22;3037;51.068;13.780;2023-03-23T17:36:16;14.90;1.00
6018;DHT22;3037;51.068;13.780;2023-03-23T17:38:42;14.90;1.00
6018;DHT22;3037;51.068;13.780;2023-03-23T17:41:07;14.80;1.00
6018;DHT22;3037;51.068;13.780;2023-03-23T17:43:33;14.80;1.00
6018;DHT22;3037;51.068;13.780;2023-03-23T17:46:00;14.70;1.00
6018;DHT22;3037;51.068;13.780;2023-03-23T17:48:26;14.70;1.00
6018;DHT22;3037;51.068;13.780;2023-03-23T17:50:54;14.70;1.00